Time;durP1;ratioP1;P1;durP2;ratioP2;P2;SDS_P1;SDS_P2;PMS_P1;PMS_P2;Temp;Humidity;BMP_temperature;BMP_pressure;BME280_temperature;BME280_humidity;BME280_pressure;Samples;Min_cycle;Max_cycle;Signal;HPM_P1;HPM_P2
2021/05/20 00:00:39;;;;;;;;;;;6.90;99.90;;;;;;5016359;28;19910;-45
2021/05/20 00:03:04;;;;;;;;;;;6.90;99.90;;;;;;5015986;28;20008;-48
2021/05/20 00:05:30;;;;;;;;;;;6.80;99.90;;;;;;5015216;28;19921;-46
2021/05/20 00:07:55;;;;;;;;;;;6.80;99.90;;;;;;5012896;28;20277;-45
2021/05/20 00:10:21;;;;;;;;;;;6.80;99.90;;;;;;5014550;28;19977;-49
2021/05/20 00:12:46;;;;;;;;;;;6.80;99.90;;;;;;5013966;28;19909;-50
2021/05/20 00:15:13;;;;;;;;;;;6.80;99.90;;;;;;5012520;28;20470;-46
2021/05/20 00:17:38;;;;;;;;;;;6.80;99.90;;;;;;5016415;28;19918;-47
2021/05/20 00:20:04;;;;;;;;;;;6.70;99.90;;;;;;5013980;28;19916;-45
2021/05/20 00:22:30;;;;;;;;;;;6.70;99.90;;;;;;5012857;28;19909;-47
2021/05/20 00:24:56;;;;;;;;;;;6.70;99.90;;;;;;5017716;28;20376;-47
2021/05/20 00:27:21;;;;;;;;;;;6.70;99.90;;;;;;5015740;28;19960;-46
2021/05/20 00:29:49;;;;;;;;;;;6.70;99.90;;;;;;5012909;28;19909;-45
2021/05/20 00:32:14;;;;;;;;;;;6.60;99.90;;;;;;5012590;28;19999;-47
2021/05/20 00:34:40;;;;;;;;;;;6.60;99.90;;;;;;5013522;28;20007;-47
2021/05/20 00:37:06;;;;;;;;;;;6.60;99.90;;;;;;5011658;28;19916;-50
2021/05/20 00:39:31;;;;;;;;;;;6.60;99.90;;;;;;5011314;28;19932;-47
2021/05/20 00:41:57;;;;;;;;;;;6.60;99.90;;;;;;5025820;28;19910;-50
2021/05/20 00:44:22;;;;;;;;;;;6.60;99.90;;;;;;5014122;28;19995;-47
2021/05/20 00:46:48;;;;;;;;;;;6.50;99.90;;;;;;5013798;28;19937;-48
2021/05/20 00:49:13;;;;;;;;;;;6.50;99.90;;;;;;5012390;28;19968;-49
2021/05/20 00:51:45;;;;;;;;;;;6.50;99.90;;;;;;5012777;28;19913;-48
2021/05/20 00:54:11;;;;;;;;;;;6.60;99.90;;;;;;5012673;28;19953;-47
2021/05/20 00:56:37;;;;;;;;;;;6.50;99.90;;;;;;5011441;28;20007;-47
2021/05/20 00:59:03;;;;;;;;;;;6.50;99.90;;;;;;5008049;28;19918;-46
2021/05/20 01:01:29;;;;;;;;;;;6.50;99.90;;;;;;5012151;28;19917;-48
2021/05/20 01:03:55;;;;;;;;;;;6.50;99.90;;;;;;5009838;28;19914;-47
2021/05/20 01:06:21;;;;;;;;;;;6.50;99.90;;;;;;5014068;28;20328;-46
2021/05/20 01:08:46;;;;;;;;;;;6.50;99.90;;;;;;5024969;28;19917;-47
2021/05/20 01:11:12;;;;;;;;;;;6.50;99.90;;;;;;5009797;28;20355;-47
2021/05/20 01:13:38;;;;;;;;;;;6.40;99.90;;;;;;5010428;28;20380;-44
2021/05/20 01:16:13;;;;;;;;;;;6.50;99.90;;;;;;5020443;28;19913;-48
2021/05/20 01:18:38;;;;;;;;;;;6.40;99.90;;;;;;5028715;28;19917;-45
2021/05/20 01:21:04;;;;;;;;;;;6.50;99.90;;;;;;5030108;28;20349;-47
2021/05/20 01:23:30;;;;;;;;;;;6.50;99.90;;;;;;5029715;28;20463;-47
2021/05/20 01:25:58;;;;;;;;;;;6.50;99.90;;;;;;5029881;28;19960;-46
2021/05/20 01:28:28;;;;;;;;;;;6.50;99.90;;;;;;5029330;28;19909;-46
2021/05/20 01:30:54;;;;;;;;;;;6.50;99.90;;;;;;5029731;28;19909;-48
2021/05/20 01:33:19;;;;;;;;;;;6.50;99.90;;;;;;5029726;28;19916;-49
2021/05/20 01:35:46;;;;;;;;;;;6.60;99.90;;;;;;5029800;28;19909;-47
2021/05/20 01:40:40;;;;;;;;;;;6.60;99.90;;;;;;5030072;28;19916;-45
2021/05/20 01:43:05;;;;;;;;;;;6.60;99.90;;;;;;5029444;28;19914;-47
2021/05/20 01:45:31;;;;;;;;;;;6.60;99.90;;;;;;5029663;28;20011;-45
2021/05/20 01:47:56;;;;;;;;;;;6.60;99.90;;;;;;5029647;28;19969;-45
2021/05/20 01:50:23;;;;;;;;;;;6.60;99.90;;;;;;5028126;28;19909;-44
2021/05/20 01:52:49;;;;;;;;;;;6.70;99.90;;;;;;5029362;28;19920;-48
2021/05/20 01:55:14;;;;;;;;;;;6.70;99.90;;;;;;5026263;28;19913;-47
2021/05/20 01:57:39;;;;;;;;;;;6.70;99.90;;;;;;5014206;28;19913;-47
2021/05/20 02:00:06;;;;;;;;;;;6.70;99.90;;;;;;5027643;28;19916;-48
2021/05/20 02:02:31;;;;;;;;;;;6.70;99.90;;;;;;5029393;28;19917;-46
2021/05/20 02:04:57;;;;;;;;;;;6.70;99.90;;;;;;5024703;28;19988;-44
2021/05/20 02:07:22;;;;;;;;;;;6.70;99.90;;;;;;5030902;23;20368;-61
2021/05/20 02:09:48;;;;;;;;;;;6.70;99.90;;;;;;5007903;28;19916;-61
2021/05/20 02:12:13;;;;;;;;;;;6.60;99.90;;;;;;5009171;28;19917;-61
2021/05/20 02:14:39;;;;;;;;;;;6.60;99.90;;;;;;5009484;28;19909;-61
2021/05/20 02:17:04;;;;;;;;;;;6.60;99.90;;;;;;5009428;28;20395;-62
2021/05/20 02:19:30;;;;;;;;;;;6.60;99.90;;;;;;5009405;28;19910;-61
2021/05/20 02:21:55;;;;;;;;;;;6.60;99.90;;;;;;5009015;28;20432;-62
2021/05/20 02:24:21;;;;;;;;;;;6.60;99.90;;;;;;5011601;28;19924;-61
2021/05/20 02:26:46;;;;;;;;;;;6.60;99.90;;;;;;5010541;28;20462;-61
2021/05/20 02:29:11;;;;;;;;;;;6.60;99.90;;;;;;5003381;28;19939;-61
2021/05/20 02:31:37;;;;;;;;;;;6.60;99.90;;;;;;5009124;28;19916;-62
2021/05/20 02:34:03;;;;;;;;;;;6.60;99.90;;;;;;5009121;28;20494;-62
2021/05/20 02:36:28;;;;;;;;;;;6.60;99.90;;;;;;5008955;28;19913;-62
2021/05/20 02:38:54;;;;;;;;;;;6.60;99.90;;;;;;5009067;28;19917;-62
2021/05/20 02:41:19;;;;;;;;;;;6.60;99.90;;;;;;5008836;28;19937;-62
2021/05/20 02:43:44;;;;;;;;;;;6.60;99.90;;;;;;5008888;28;19982;-60
2021/05/20 02:46:10;;;;;;;;;;;6.60;99.90;;;;;;5008953;28;20391;-62
2021/05/20 02:48:35;;;;;;;;;;;6.60;99.90;;;;;;4995503;28;20000;-62
2021/05/20 02:51:01;;;;;;;;;;;6.60;99.90;;;;;;5009005;28;20487;-62
2021/05/20 02:53:26;;;;;;;;;;;6.70;99.90;;;;;;5009314;28;19987;-62
2021/05/20 02:55:52;;;;;;;;;;;6.70;99.90;;;;;;5009479;28;19992;-61
2021/05/20 02:58:19;;;;;;;;;;;6.70;99.90;;;;;;5011883;28;19913;-63
2021/05/20 03:00:46;;;;;;;;;;;6.70;99.90;;;;;;5008290;28;19913;-62
2021/05/20 03:03:13;;;;;;;;;;;6.70;99.90;;;;;;5007918;28;20000;-61
2021/05/20 03:05:38;;;;;;;;;;;6.70;99.90;;;;;;5009264;28;20004;-61
2021/05/20 03:08:04;;;;;;;;;;;6.70;99.90;;;;;;5009135;28;19921;-63
2021/05/20 03:10:29;;;;;;;;;;;6.70;99.90;;;;;;4989618;28;19936;-61
2021/05/20 03:12:55;;;;;;;;;;;6.80;99.90;;;;;;4999390;28;19920;-60
2021/05/20 03:15:20;;;;;;;;;;;6.70;99.90;;;;;;5009201;28;19910;-62
2021/05/20 03:17:46;;;;;;;;;;;6.80;99.90;;;;;;5008975;28;19920;-62
2021/05/20 03:20:12;;;;;;;;;;;6.80;99.90;;;;;;5008403;28;20415;-62
2021/05/20 03:22:38;;;;;;;;;;;6.80;99.90;;;;;;5008355;28;20395;-62
2021/05/20 03:25:03;;;;;;;;;;;6.80;99.90;;;;;;5008583;28;19955;-62
2021/05/20 03:27:29;;;;;;;;;;;6.80;99.90;;;;;;5006903;28;19909;-61
2021/05/20 03:29:54;;;;;;;;;;;6.80;99.90;;;;;;5013559;28;20307;-62
2021/05/20 03:32:20;;;;;;;;;;;6.80;99.90;;;;;;5008593;28;19917;-62
2021/05/20 03:34:45;;;;;;;;;;;6.80;99.90;;;;;;5007312;28;19924;-60
2021/05/20 03:37:10;;;;;;;;;;;6.80;99.90;;;;;;5008593;28;20387;-62
2021/05/20 03:39:36;;;;;;;;;;;6.80;99.90;;;;;;5008311;28;19910;-62
2021/05/20 03:42:02;;;;;;;;;;;6.90;99.90;;;;;;5007654;28;20422;-62
2021/05/20 03:44:28;;;;;;;;;;;6.90;99.90;;;;;;5008593;28;19926;-62
2021/05/20 03:46:54;;;;;;;;;;;6.90;99.90;;;;;;5008417;28;19910;-61
2021/05/20 03:49:19;;;;;;;;;;;6.90;99.90;;;;;;5007007;28;19909;-62
2021/05/20 03:51:45;;;;;;;;;;;6.90;99.90;;;;;;5008233;28;20338;-61
2021/05/20 03:54:10;;;;;;;;;;;6.90;99.90;;;;;;5008604;28;19952;-62
2021/05/20 03:56:36;;;;;;;;;;;6.80;99.90;;;;;;5016607;28;19916;-62
2021/05/20 03:59:01;;;;;;;;;;;6.80;99.90;;;;;;5012228;28;19968;-62
2021/05/20 04:01:27;;;;;;;;;;;6.80;99.90;;;;;;5019435;28;20371;-62
2021/05/20 04:03:52;;;;;;;;;;;6.80;99.90;;;;;;5012312;28;19929;-62
2021/05/20 04:06:18;;;;;;;;;;;6.80;99.90;;;;;;5012030;28;20332;-63
2021/05/20 04:08:43;;;;;;;;;;;6.80;99.90;;;;;;5012066;28;19924;-62
2021/05/20 04:11:09;;;;;;;;;;;6.80;99.90;;;;;;5011935;28;19947;-62
2021/05/20 04:13:36;;;;;;;;;;;6.80;99.90;;;;;;5012003;28;20001;-62
2021/05/20 04:16:03;;;;;;;;;;;6.80;99.90;;;;;;5012160;28;20404;-62
2021/05/20 04:18:28;;;;;;;;;;;6.80;99.90;;;;;;5011717;28;19917;-63
2021/05/20 04:20:54;;;;;;;;;;;6.80;99.90;;;;;;5011582;28;19996;-62
2021/05/20 04:23:20;;;;;;;;;;;6.80;99.90;;;;;;5010662;28;19910;-62
2021/05/20 04:25:46;;;;;;;;;;;6.80;99.90;;;;;;5011709;28;20454;-62
2021/05/20 04:28:12;;;;;;;;;;;6.90;99.90;;;;;;5017303;28;20008;-62
2021/05/20 04:30:38;;;;;;;;;;;6.90;99.90;;;;;;5005274;28;19913;-62
2021/05/20 04:33:04;;;;;;;;;;;7.00;99.90;;;;;;5016955;28;20000;-61
2021/05/20 04:35:29;;;;;;;;;;;7.00;99.90;;;;;;5018722;28;20180;-61
2021/05/20 04:37:55;;;;;;;;;;;7.10;99.90;;;;;;5011008;28;20004;-60
2021/05/20 04:40:20;;;;;;;;;;;7.10;99.90;;;;;;5011396;28;19922;-61
2021/05/20 04:42:46;;;;;;;;;;;7.30;99.90;;;;;;5011226;28;20273;-61
2021/05/20 04:45:12;;;;;;;;;;;7.40;99.90;;;;;;5011393;28;19928;-62
2021/05/20 04:47:37;;;;;;;;;;;7.40;99.90;;;;;;5011155;28;20048;-59
2021/05/20 04:50:03;;;;;;;;;;;7.50;99.90;;;;;;5010820;28;20397;-61
2021/05/20 04:52:28;;;;;;;;;;;7.60;99.90;;;;;;5009714;28;19916;-61
2021/05/20 04:54:54;;;;;;;;;;;7.70;99.90;;;;;;5010962;28;19909;-61
2021/05/20 04:57:20;;;;;;;;;;;7.70;99.90;;;;;;5010895;28;19960;-62
2021/05/20 04:59:45;;;;;;;;;;;7.80;99.90;;;;;;5010855;28;20283;-61
2021/05/20 05:02:10;;;;;;;;;;;7.90;99.90;;;;;;5011272;28;19909;-62
2021/05/20 05:04:36;;;;;;;;;;;8.00;99.90;;;;;;5012232;28;19984;-61
2021/05/20 05:07:01;;;;;;;;;;;8.10;99.90;;;;;;5010564;28;19925;-61
2021/05/20 05:09:27;;;;;;;;;;;8.10;99.90;;;;;;5010775;28;19920;-61
2021/05/20 05:11:52;;;;;;;;;;;8.20;99.90;;;;;;5010477;28;19914;-61
2021/05/20 05:14:18;;;;;;;;;;;8.20;99.90;;;;;;5010945;28;20008;-61
2021/05/20 05:16:43;;;;;;;;;;;8.20;99.90;;;;;;5010839;28;19914;-62
2021/05/20 05:19:09;;;;;;;;;;;8.30;99.90;;;;;;5010322;28;19953;-61
2021/05/20 05:21:34;;;;;;;;;;;8.30;99.90;;;;;;5010547;28;19913;-61
2021/05/20 05:24:00;;;;;;;;;;;8.40;99.90;;;;;;5010791;28;19964;-61
2021/05/20 05:26:26;;;;;;;;;;;8.40;99.90;;;;;;5009233;28;19989;-61
2021/05/20 05:28:51;;;;;;;;;;;8.40;99.90;;;;;;5010011;28;19909;-61
2021/05/20 05:31:21;;;;;;;;;;;8.50;99.90;;;;;;5010641;28;19916;-61
2021/05/20 05:33:47;;;;;;;;;;;8.50;99.90;;;;;;5010378;28;19909;-61
2021/05/20 05:36:12;;;;;;;;;;;8.60;99.90;;;;;;5010544;28;19921;-59
2021/05/20 05:38:38;;;;;;;;;;;8.70;99.90;;;;;;5022446;28;20004;-60
2021/05/20 05:41:04;;;;;;;;;;;8.90;99.90;;;;;;5007149;28;20496;-60
2021/05/20 05:43:29;;;;;;;;;;;9.10;99.90;;;;;;5010601;28;19992;-62
2021/05/20 05:45:55;;;;;;;;;;;9.20;99.90;;;;;;5010480;28;19914;-61
2021/05/20 05:48:20;;;;;;;;;;;9.30;99.90;;;;;;4998167;28;20491;-59
2021/05/20 05:50:48;;;;;;;;;;;9.40;99.90;;;;;;5010240;28;19913;-59
2021/05/20 05:53:13;;;;;;;;;;;9.50;99.90;;;;;;5010414;28;19910;-60
2021/05/20 05:55:39;;;;;;;;;;;9.60;99.90;;;;;;5008871;28;19920;-60
2021/05/20 05:58:04;;;;;;;;;;;9.80;99.90;;;;;;5010063;28;20596;-60
2021/05/20 06:00:30;;;;;;;;;;;10.00;99.90;;;;;;5007949;28;19909;-61
2021/05/20 06:02:55;;;;;;;;;;;10.10;99.90;;;;;;5009400;28;20367;-62
2021/05/20 06:05:21;;;;;;;;;;;10.20;99.90;;;;;;5009793;28;19918;-61
2021/05/20 06:07:47;;;;;;;;;;;10.40;99.90;;;;;;5009811;28;20367;-62
2021/05/20 06:10:12;;;;;;;;;;;10.50;99.90;;;;;;5015982;28;19913;-62
2021/05/20 06:12:38;;;;;;;;;;;10.50;99.90;;;;;;5009560;28;19910;-62
2021/05/20 06:15:05;;;;;;;;;;;10.50;99.90;;;;;;5009508;28;19910;-63
2021/05/20 06:17:31;;;;;;;;;;;10.50;99.90;;;;;;5009136;28;19914;-62
2021/05/20 06:19:56;;;;;;;;;;;10.60;99.90;;;;;;5007832;28;19921;-62
2021/05/20 06:22:22;;;;;;;;;;;10.80;99.90;;;;;;5009275;28;20415;-62
2021/05/20 06:24:47;;;;;;;;;;;11.10;99.90;;;;;;5009288;28;20426;-63
2021/05/20 06:27:13;;;;;;;;;;;11.30;99.90;;;;;;5009313;28;19964;-62
2021/05/20 06:29:38;;;;;;;;;;;11.30;99.90;;;;;;5008704;28;19909;-61
2021/05/20 06:32:04;;;;;;;;;;;11.40;99.90;;;;;;5007942;28;19909;-59
2021/05/20 06:34:29;;;;;;;;;;;11.40;99.90;;;;;;5009750;28;19910;-61
2021/05/20 06:36:58;;;;;;;;;;;11.60;99.90;;;;;;5009457;28;20599;-59
2021/05/20 06:39:23;;;;;;;;;;;11.60;99.90;;;;;;5009290;28;19921;-60
2021/05/20 06:41:50;;;;;;;;;;;11.40;99.90;;;;;;5010254;28;21843;-59
2021/05/20 06:44:15;;;;;;;;;;;11.30;99.90;;;;;;5009443;28;20000;-61
2021/05/20 06:46:41;;;;;;;;;;;11.20;99.90;;;;;;5009072;28;20590;-62
2021/05/20 06:49:09;;;;;;;;;;;11.10;99.90;;;;;;5008943;28;19905;-62
2021/05/20 06:51:35;;;;;;;;;;;11.00;99.90;;;;;;5003028;28;20392;-61
2021/05/20 06:54:00;;;;;;;;;;;10.90;99.90;;;;;;4991241;28;19964;-60
2021/05/20 06:56:28;;;;;;;;;;;10.90;99.90;;;;;;5006664;28;19910;-62
2021/05/20 07:01:44;;;;;;;;;;;11.40;99.90;;;;;;5012153;28;19916;-60
2021/05/20 07:04:10;;;;;;;;;;;11.60;99.90;;;;;;5008090;28;19910;-61
2021/05/20 07:06:35;;;;;;;;;;;11.60;99.90;;;;;;5008243;28;19913;-61
2021/05/20 07:09:00;;;;;;;;;;;11.70;99.90;;;;;;5001787;28;19918;-60
2021/05/20 07:11:29;;;;;;;;;;;11.80;99.90;;;;;;4991023;28;20000;-60
2021/05/20 07:13:54;;;;;;;;;;;12.10;99.90;;;;;;4995246;28;20304;-61
2021/05/20 07:16:20;;;;;;;;;;;12.30;99.90;;;;;;5006884;28;19914;-62
2021/05/20 07:18:45;;;;;;;;;;;12.70;99.90;;;;;;4993066;28;19920;-60
2021/05/20 07:21:11;;;;;;;;;;;12.90;99.90;;;;;;4989455;28;20328;-61
2021/05/20 07:23:36;;;;;;;;;;;12.90;99.90;;;;;;4992759;28;20005;-61
2021/05/20 07:26:02;;;;;;;;;;;12.80;99.90;;;;;;4990444;28;19910;-62
2021/05/20 07:28:27;;;;;;;;;;;12.80;99.90;;;;;;4989345;28;19921;-60
2021/05/20 07:30:53;;;;;;;;;;;12.80;99.90;;;;;;4992751;28;20372;-60
2021/05/20 07:33:18;;;;;;;;;;;12.80;99.90;;;;;;4994869;28;19910;-61
2021/05/20 07:35:44;;;;;;;;;;;12.90;99.90;;;;;;4995346;28;19972;-62
2021/05/20 07:38:09;;;;;;;;;;;13.20;99.90;;;;;;4994602;28;19913;-61
2021/05/20 07:40:35;;;;;;;;;;;13.50;99.90;;;;;;4993620;28;19960;-62
2021/05/20 07:43:00;;;;;;;;;;;13.70;99.90;;;;;;4993583;28;19921;-61
2021/05/20 07:45:26;;;;;;;;;;;14.10;99.90;;;;;;4995205;28;19910;-61
2021/05/20 07:47:51;;;;;;;;;;;14.50;99.90;;;;;;4994573;28;19921;-61
2021/05/20 07:50:17;;;;;;;;;;;14.90;99.90;;;;;;4994346;28;19996;-62
2021/05/20 07:52:43;;;;;;;;;;;15.00;99.90;;;;;;4994516;28;20441;-62
2021/05/20 07:55:09;;;;;;;;;;;14.90;99.90;;;;;;5000397;28;19917;-60
2021/05/20 07:57:34;;;;;;;;;;;14.70;99.90;;;;;;4993615;28;19914;-62
2021/05/20 08:00:00;;;;;;;;;;;14.50;99.90;;;;;;4992494;28;19916;-62
2021/05/20 08:04:54;;;;;;;;;;;14.30;99.90;;;;;;4994568;28;19918;-62
2021/05/20 08:09:49;;;;;;;;;;;14.50;99.90;;;;;;5032904;28;20482;-52
2021/05/20 08:12:15;;;;;;;;;;;14.90;99.90;;;;;;5038060;28;19966;-53
2021/05/20 08:14:40;;;;;;;;;;;15.30;99.90;;;;;;5049738;28;20391;-51
2021/05/20 08:17:07;;;;;;;;;;;15.40;99.90;;;;;;5050772;28;19994;-53
2021/05/20 08:19:32;;;;;;;;;;;15.20;99.90;;;;;;5051186;28;19964;-54
2021/05/20 08:21:58;;;;;;;;;;;14.80;99.90;;;;;;5046323;28;19952;-53
2021/05/20 08:24:23;;;;;;;;;;;14.50;99.90;;;;;;5036635;28;20433;-50
2021/05/20 08:26:49;;;;;;;;;;;14.60;99.90;;;;;;5038672;28;19909;-52
2021/05/20 08:29:14;;;;;;;;;;;14.90;99.90;;;;;;5026778;28;19916;-55
2021/05/20 08:31:40;;;;;;;;;;;15.30;99.90;;;;;;5042356;28;19920;-53
2021/05/20 08:34:05;;;;;;;;;;;15.70;99.90;;;;;;5030256;28;19909;-55
2021/05/20 08:36:32;;;;;;;;;;;16.00;99.90;;;;;;5029780;28;19944;-54
2021/05/20 08:38:58;;;;;;;;;;;16.30;99.90;;;;;;5029670;28;19913;-55
2021/05/20 08:41:23;;;;;;;;;;;16.80;99.90;;;;;;5027780;28;19968;-53
2021/05/20 08:43:49;;;;;;;;;;;16.80;99.90;;;;;;5028706;28;19992;-51
2021/05/20 08:46:21;;;;;;;;;;;16.60;99.90;;;;;;5029625;28;20027;-52
2021/05/20 08:48:46;;;;;;;;;;;16.20;99.90;;;;;;5031029;28;20350;-51
2021/05/20 08:51:12;;;;;;;;;;;15.90;99.90;;;;;;5031818;28;20004;-51
2021/05/20 08:53:39;;;;;;;;;;;15.60;99.90;;;;;;5042319;28;19915;-54
2021/05/20 08:56:04;;;;;;;;;;;15.50;99.90;;;;;;5026126;28;19909;-50
2021/05/20 08:58:30;;;;;;;;;;;15.50;99.90;;;;;;5043068;28;20343;-50
2021/05/20 09:00:56;;;;;;;;;;;15.70;99.90;;;;;;5036667;28;20391;-54
2021/05/20 09:03:22;;;;;;;;;;;16.00;99.90;;;;;;5041599;28;20558;-53
2021/05/20 09:05:49;;;;;;;;;;;16.40;99.90;;;;;;5031477;28;19910;-52
2021/05/20 09:08:16;;;;;;;;;;;16.80;99.90;;;;;;5039735;28;19940;-50
2021/05/20 09:10:45;;;;;;;;;;;16.80;99.90;;;;;;5041236;28;20551;-50
2021/05/20 09:13:14;;;;;;;;;;;16.80;99.90;;;;;;5045460;28;19916;-51
2021/05/20 09:15:41;;;;;;;;;;;16.80;99.90;;;;;;5035670;28;19952;-48
2021/05/20 09:18:06;;;;;;;;;;;16.50;99.90;;;;;;5039350;28;19935;-51
2021/05/20 09:20:32;;;;;;;;;;;16.30;99.90;;;;;;5041255;28;20076;-50
2021/05/20 09:23:02;;;;;;;;;;;16.10;99.90;;;;;;5031013;28;19963;-53
2021/05/20 09:25:29;;;;;;;;;;;15.80;99.90;;;;;;5040068;28;19909;-49
2021/05/20 09:27:55;;;;;;;;;;;15.60;99.90;;;;;;5045279;28;19915;-48
2021/05/20 09:30:20;;;;;;;;;;;15.70;99.90;;;;;;5042430;28;20007;-48
2021/05/20 09:32:52;;;;;;;;;;;16.00;99.90;;;;;;5043691;28;19915;-47
2021/05/20 09:35:18;;;;;;;;;;;16.40;99.90;;;;;;5043698;28;20493;-50
2021/05/20 09:37:45;;;;;;;;;;;16.80;99.90;;;;;;5030540;28;19917;-50
2021/05/20 09:40:11;;;;;;;;;;;17.30;99.90;;;;;;5029071;28;19913;-50
2021/05/20 09:42:36;;;;;;;;;;;17.50;99.90;;;;;;5029178;28;19955;-48
2021/05/20 09:45:06;;;;;;;;;;;17.60;99.50;;;;;;5028912;28;20318;-48
2021/05/20 09:47:31;;;;;;;;;;;17.60;96.10;;;;;;5020006;28;20315;-50
2021/05/20 09:49:59;;;;;;;;;;;17.40;96.20;;;;;;5027489;28;19909;-50
2021/05/20 09:52:25;;;;;;;;;;;17.30;99.90;;;;;;5027162;28;19937;-49
2021/05/20 09:54:51;;;;;;;;;;;16.90;99.30;;;;;;5027577;28;20395;-53
2021/05/20 09:57:27;;;;;;;;;;;16.80;99.90;;;;;;5027553;28;19909;-48
2021/05/20 10:00:08;;;;;;;;;;;16.50;99.90;;;;;;5027121;28;19913;-50
2021/05/20 10:02:34;;;;;;;;;;;16.60;99.90;;;;;;5028545;28;19913;-48
2021/05/20 10:05:17;;;;;;;;;;;16.70;99.90;;;;;;5027257;28;19909;-48
2021/05/20 10:07:42;;;;;;;;;;;16.90;99.90;;;;;;5028453;28;19990;-49
2021/05/20 10:10:08;;;;;;;;;;;17.40;99.90;;;;;;5028272;28;20340;-51
2021/05/20 10:12:34;;;;;;;;;;;17.70;99.90;;;;;;5028590;28;19909;-48
2021/05/20 10:14:59;;;;;;;;;;;17.70;99.10;;;;;;5028465;28;20555;-50
2021/05/20 10:17:25;;;;;;;;;;;17.50;98.50;;;;;;5029278;28;19910;-49
2021/05/20 10:19:50;;;;;;;;;;;17.50;99.70;;;;;;5028718;28;20398;-50
2021/05/20 10:22:16;;;;;;;;;;;17.30;99.40;;;;;;5028649;28;19955;-48
2021/05/20 10:24:41;;;;;;;;;;;17.10;97.70;;;;;;5030220;28;19909;-48
2021/05/20 10:27:09;;;;;;;;;;;16.90;99.20;;;;;;5027015;28;20007;-52
2021/05/20 10:29:35;;;;;;;;;;;16.70;99.90;;;;;;5027841;28;19949;-50
2021/05/20 10:32:01;;;;;;;;;;;16.50;99.90;;;;;;5036870;28;19909;-51
2021/05/20 10:34:27;;;;;;;;;;;16.20;99.90;;;;;;5027998;28;20084;-52
2021/05/20 10:37:00;;;;;;;;;;;16.00;99.90;;;;;;5027624;28;20003;-51
2021/05/20 10:39:26;;;;;;;;;;;16.00;99.90;;;;;;5027746;28;20004;-52
2021/05/20 10:41:52;;;;;;;;;;;15.90;99.90;;;;;;5026305;28;20416;-48
2021/05/20 10:44:19;;;;;;;;;;;15.80;99.90;;;;;;5039638;28;19975;-52
2021/05/20 10:46:57;;;;;;;;;;;15.80;99.90;;;;;;5025198;28;19920;-49
2021/05/20 10:49:41;;;;;;;;;;;16.10;99.90;;;;;;5026192;28;19939;-50
2021/05/20 10:52:26;;;;;;;;;;;16.20;99.90;;;;;;5022066;28;19951;-51
2021/05/20 10:55:03;;;;;;;;;;;16.30;99.90;;;;;;5024257;28;19992;-52
2021/05/20 10:57:58;;;;;;;;;;;16.50;99.90;;;;;;5030167;28;19913;-47
2021/05/20 11:00:30;;;;;;;;;;;16.60;99.90;;;;;;5024285;28;19963;-50
2021/05/20 11:02:56;;;;;;;;;;;16.70;99.90;;;;;;5026218;28;20327;-50
2021/05/20 11:05:40;;;;;;;;;;;17.10;99.90;;;;;;5027178;28;19995;-49
2021/05/20 11:08:09;;;;;;;;;;;17.20;99.40;;;;;;5030625;28;20481;-48
2021/05/20 11:10:36;;;;;;;;;;;16.80;99.90;;;;;;5029934;28;19959;-48
2021/05/20 11:13:01;;;;;;;;;;;16.30;99.90;;;;;;5031350;28;19909;-53
2021/05/20 11:15:27;;;;;;;;;;;16.40;99.90;;;;;;5030659;28;19963;-51
2021/05/20 11:17:53;;;;;;;;;;;16.40;99.90;;;;;;5029693;28;19913;-50
2021/05/20 11:20:24;;;;;;;;;;;16.10;99.90;;;;;;5031078;28;19948;-49
2021/05/20 11:23:08;;;;;;;;;;;16.00;99.90;;;;;;5029352;28;19909;-51
2021/05/20 11:25:34;;;;;;;;;;;16.10;99.90;;;;;;5029613;28;19913;-49
2021/05/20 11:28:06;;;;;;;;;;;16.30;99.90;;;;;;5028957;28;19913;-49
2021/05/20 11:30:32;;;;;;;;;;;16.70;99.90;;;;;;5029419;28;19995;-50
2021/05/20 11:32:59;;;;;;;;;;;17.10;99.90;;;;;;5030425;28;20448;-51
2021/05/20 11:35:55;;;;;;;;;;;17.40;99.40;;;;;;5030011;28;20427;-48
2021/05/20 11:38:22;;;;;;;;;;;17.60;97.60;;;;;;5028679;28;19913;-49
2021/05/20 11:40:48;;;;;;;;;;;17.80;96.40;;;;;;5029808;28;20346;-50
2021/05/20 11:43:13;;;;;;;;;;;17.80;96.40;;;;;;5027966;28;19952;-48
2021/05/20 11:45:39;;;;;;;;;;;17.80;96.60;;;;;;5028990;28;19917;-49
2021/05/20 11:48:05;;;;;;;;;;;17.80;96.80;;;;;;5029177;28;19917;-47
2021/05/20 11:50:32;;;;;;;;;;;17.50;93.30;;;;;;5029659;28;19909;-50
2021/05/20 11:52:57;;;;;;;;;;;17.50;95.10;;;;;;5029704;28;19913;-49
2021/05/20 11:55:24;;;;;;;;;;;17.40;93.10;;;;;;5030300;28;20444;-48
2021/05/20 11:57:59;;;;;;;;;;;17.40;95.30;;;;;;5028430;28;20015;-50
2021/05/20 12:00:26;;;;;;;;;;;17.40;93.40;;;;;;5030006;28;19909;-48
2021/05/20 12:02:57;;;;;;;;;;;17.40;93.30;;;;;;5028198;28;19913;-48
2021/05/20 12:05:24;;;;;;;;;;;17.50;95.80;;;;;;5027788;28;20544;-49
2021/05/20 12:07:49;;;;;;;;;;;17.80;95.40;;;;;;5028631;28;19917;-48
2021/05/20 12:10:16;;;;;;;;;;;18.00;93.30;;;;;;5030156;28;19913;-49
2021/05/20 12:12:43;;;;;;;;;;;18.20;92.10;;;;;;5029101;28;19921;-48
2021/05/20 12:15:09;;;;;;;;;;;18.30;91.40;;;;;;5025847;28;19916;-48
2021/05/20 12:17:35;;;;;;;;;;;18.30;90.80;;;;;;5034908;28;19909;-48
2021/05/20 12:20:00;;;;;;;;;;;18.00;92.40;;;;;;5036984;28;19962;-49
2021/05/20 12:22:30;;;;;;;;;;;17.80;92.10;;;;;;5036778;28;20394;-47
2021/05/20 12:24:57;;;;;;;;;;;17.50;92.20;;;;;;5037335;28;19908;-47
2021/05/20 12:27:22;;;;;;;;;;;17.40;94.00;;;;;;5029659;28;20587;-48
2021/05/20 12:29:53;;;;;;;;;;;17.30;94.50;;;;;;5048516;28;19954;-49
2021/05/20 12:32:42;;;;;;;;;;;17.20;95.70;;;;;;5033751;28;19910;-48
2021/05/20 12:35:07;;;;;;;;;;;16.90;96.50;;;;;;5021441;28;19945;-49
2021/05/20 12:38:00;;;;;;;;;;;16.10;99.90;;;;;;5022130;28;19913;-51
2021/05/20 12:40:25;;;;;;;;;;;15.70;99.90;;;;;;5028313;28;20280;-50
2021/05/20 12:43:11;;;;;;;;;;;15.10;99.90;;;;;;5028316;28;19916;-53
2021/05/20 12:45:39;;;;;;;;;;;14.70;99.90;;;;;;5029534;28;19988;-53
2021/05/20 12:48:17;;;;;;;;;;;14.30;99.90;;;;;;5029296;28;19920;-55
2021/05/20 12:50:44;;;;;;;;;;;14.20;99.90;;;;;;5029194;28;19913;-48
2021/05/20 12:53:09;;;;;;;;;;;14.00;99.90;;;;;;5030921;28;19951;-52
2021/05/20 12:55:41;;;;;;;;;;;13.90;99.90;;;;;;5033691;28;20000;-52
2021/05/20 12:58:08;;;;;;;;;;;14.00;99.90;;;;;;5037205;28;20020;-52
2021/05/20 13:00:55;;;;;;;;;;;14.00;99.90;;;;;;5035152;28;20034;-51
2021/05/20 13:03:21;;;;;;;;;;;13.80;99.90;;;;;;5032796;28;19950;-49
2021/05/20 13:05:47;;;;;;;;;;;13.60;99.90;;;;;;5028511;28;19980;-52
2021/05/20 13:08:23;;;;;;;;;;;13.60;99.90;;;;;;5032976;28;19917;-53
2021/05/20 13:10:48;;;;;;;;;;;13.60;99.90;;;;;;5035717;28;19916;-52
2021/05/20 13:13:24;;;;;;;;;;;13.60;99.90;;;;;;5041323;28;19909;-51
2021/05/20 13:15:55;;;;;;;;;;;13.50;99.90;;;;;;5045205;28;19909;-51
2021/05/20 13:23:24;;;;;;;;;;;13.50;99.90;;;;;;5035048;28;19910;-52
2021/05/20 13:25:50;;;;;;;;;;;13.60;99.90;;;;;;5040229;28;19909;-50
2021/05/20 13:28:16;;;;;;;;;;;13.60;99.90;;;;;;5028244;28;20007;-52
2021/05/20 13:30:51;;;;;;;;;;;13.80;99.90;;;;;;5040570;28;20202;-51
2021/05/20 13:33:25;;;;;;;;;;;14.00;99.90;;;;;;5028660;28;19916;-55
2021/05/20 13:35:50;;;;;;;;;;;14.20;99.90;;;;;;5027603;28;19913;-56
2021/05/20 13:38:16;;;;;;;;;;;14.40;99.90;;;;;;5030973;28;20297;-54
2021/05/20 13:40:42;;;;;;;;;;;14.70;99.90;;;;;;5037557;28;19909;-56
2021/05/20 13:43:08;;;;;;;;;;;15.00;99.90;;;;;;5027678;28;20008;-53
2021/05/20 13:45:33;;;;;;;;;;;15.20;99.90;;;;;;5033538;28;20412;-53
2021/05/20 13:47:58;;;;;;;;;;;15.30;99.90;;;;;;5028153;28;20291;-55
2021/05/20 13:50:24;;;;;;;;;;;15.50;99.90;;;;;;5038563;28;19913;-55
2021/05/20 13:52:51;;;;;;;;;;;15.60;99.90;;;;;;5028234;28;20008;-55
2021/05/20 13:55:18;;;;;;;;;;;15.60;99.90;;;;;;5023880;28;19916;-55
2021/05/20 13:57:47;;;;;;;;;;;15.70;99.90;;;;;;5032239;28;19924;-52
2021/05/20 14:00:33;;;;;;;;;;;15.80;99.90;;;;;;5027679;28;19999;-54
2021/05/20 14:03:01;;;;;;;;;;;15.90;99.90;;;;;;5039708;28;19905;-52
2021/05/20 14:05:26;;;;;;;;;;;15.70;99.90;;;;;;5036002;28;20441;-52
2021/05/20 14:07:52;;;;;;;;;;;15.80;99.90;;;;;;5032899;28;20264;-52
2021/05/20 14:10:18;;;;;;;;;;;15.90;99.90;;;;;;5021180;23;20020;-79
2021/05/20 14:12:45;;;;;;;;;;;16.00;99.90;;;;;;5018147;28;19914;-79
2021/05/20 14:15:12;;;;;;;;;;;16.00;99.90;;;;;;4989251;28;20284;-77
2021/05/20 14:17:37;;;;;;;;;;;16.00;99.90;;;;;;5005318;28;20376;-78
2021/05/20 14:20:08;;;;;;;;;;;15.90;99.90;;;;;;4989785;28;19914;-77
2021/05/20 14:22:34;;;;;;;;;;;15.90;99.90;;;;;;5004570;28;19922;-77
2021/05/20 14:24:59;;;;;;;;;;;15.90;99.90;;;;;;4987919;28;20381;-78
2021/05/20 14:27:25;;;;;;;;;;;15.90;99.90;;;;;;4989454;28;19910;-77
2021/05/20 14:29:52;;;;;;;;;;;16.00;99.90;;;;;;4989144;28;19910;-76
2021/05/20 14:32:22;;;;;;;;;;;16.10;99.90;;;;;;4987749;28;20424;-76
2021/05/20 14:34:48;;;;;;;;;;;16.10;99.90;;;;;;4989652;28;19914;-77
2021/05/20 14:37:14;;;;;;;;;;;16.20;99.90;;;;;;4980404;28;19960;-77